sensor_id;sensor_type;location;lat;lon;timestamp;temperature;humidity
3086;DHT22;52812;48.960;9.108;2022-11-12T00:00:56;4.60;99.90
3086;DHT22;52812;48.960;9.108;2022-11-12T00:03:23;4.60;99.90
3086;DHT22;52812;48.960;9.108;2022-11-12T00:05:49;4.60;99.90
3086;DHT22;52812;48.960;9.108;2022-11-12T00:08:16;4.70;99.90
3086;DHT22;52812;48.960;9.108;2022-11-12T00:10:41;4.70;99.90
3086;DHT22;52812;48.960;9.108;2022-11-12T00:13:07;4.70;99.90
3086;DHT22;52812;48.960;9.108;2022-11-12T00:15:33;4.60;99.90
3086;DHT22;52812;48.960;9.108;2022-11-12T00:17:58;4.60;99.90
3086;DHT22;52812;48.960;9.108;2022-11-12T00:20:24;4.60;99.90
3086;DHT22;52812;48.960;9.108;2022-11-12T00:22:49;4.50;99.90
3086;DHT22;52812;48.960;9.108;2022-11-12T00:25:15;4.50;99.90
3086;DHT22;52812;48.960;9.108;2022-11-12T00:27:40;4.50;99.90
3086;DHT22;52812;48.960;9.108;2022-11-12T00:30:06;4.50;99.90
3086;DHT22;52812;48.960;9.108;2022-11-12T00:32:35;4.50;99.90
3086;DHT22;52812;48.960;9.108;2022-11-12T00:35:02;4.40;99.90
3086;DHT22;52812;48.960;9.108;2022-11-12T00:37:28;4.40;99.90
3086;DHT22;52812;48.960;9.108;2022-11-12T00:39:53;4.40;99.90
3086;DHT22;52812;48.960;9.108;2022-11-12T00:42:19;4.30;99.90
3086;DHT22;52812;48.960;9.108;2022-11-12T00:44:44;4.40;99.90
3086;DHT22;52812;48.960;9.108;2022-11-12T00:47:10;4.30;99.90
3086;DHT22;52812;48.960;9.108;2022-11-12T00:49:35;4.40;99.90
3086;DHT22;52812;48.960;9.108;2022-11-12T00:52:01;4.40;99.90
3086;DHT22;52812;48.960;9.108;2022-11-12T00:54:26;4.40;99.90
3086;DHT22;52812;48.960;9.108;2022-11-12T00:56:52;4.40;99.90
3086;DHT22;52812;48.960;9.108;2022-11-12T00:59:17;4.50;99.90
3086;DHT22;52812;48.960;9.108;2022-11-12T01:01:43;4.50;99.90
3086;DHT22;52812;48.960;9.108;2022-11-12T01:04:09;4.50;99.90
3086;DHT22;52812;48.960;9.108;2022-11-12T01:06:37;4.50;99.90
3086;DHT22;52812;48.960;9.108;2022-11-12T01:09:03;4.50;99.90
3086;DHT22;52812;48.960;9.108;2022-11-12T01:11:29;4.50;99.90
3086;DHT22;52812;48.960;9.108;2022-11-12T01:13:58;4.30;99.90
3086;DHT22;52812;48.960;9.108;2022-11-12T01:16:27;4.20;99.90
3086;DHT22;52812;48.960;9.108;2022-11-12T01:18:58;4.20;99.90
3086;DHT22;52812;48.960;9.108;2022-11-12T01:21:26;4.20;99.90
3086;DHT22;52812;48.960;9.108;2022-11-12T01:23:52;4.10;99.90
3086;DHT22;52812;48.960;9.108;2022-11-12T01:26:20;4.10;99.90
3086;DHT22;52812;48.960;9.108;2022-11-12T01:28:45;4.10;99.90
3086;DHT22;52812;48.960;9.108;2022-11-12T01:31:17;4.00;99.90
3086;DHT22;52812;48.960;9.108;2022-11-12T01:33:44;3.90;99.90
3086;DHT22;52812;48.960;9.108;2022-11-12T01:36:11;3.90;99.90
3086;DHT22;52812;48.960;9.108;2022-11-12T01:38:38;3.80;99.90
3086;DHT22;52812;48.960;9.108;2022-11-12T01:41:06;3.80;99.90
3086;DHT22;52812;48.960;9.108;2022-11-12T01:43:33;3.80;99.90
3086;DHT22;52812;48.960;9.108;2022-11-12T01:46:02;3.80;99.90
3086;DHT22;52812;48.960;9.108;2022-11-12T01:48:40;3.90;99.90
3086;DHT22;52812;48.960;9.108;2022-11-12T01:51:09;3.90;99.90
3086;DHT22;52812;48.960;9.108;2022-11-12T01:53:39;3.90;99.90
3086;DHT22;52812;48.960;9.108;2022-11-12T01:56:08;3.80;99.90
3086;DHT22;52812;48.960;9.108;2022-11-12T01:58:35;3.90;99.90
3086;DHT22;52812;48.960;9.108;2022-11-12T02:01:03;3.90;99.90
3086;DHT22;52812;48.960;9.108;2022-11-12T02:03:28;3.90;99.90
3086;DHT22;52812;48.960;9.108;2022-11-12T02:06:02;3.90;99.90
3086;DHT22;52812;48.960;9.108;2022-11-12T02:08:30;3.90;99.90
3086;DHT22;52812;48.960;9.108;2022-11-12T02:10:56;3.90;99.90
3086;DHT22;52812;48.960;9.108;2022-11-12T02:13:23;3.90;99.90
3086;DHT22;52812;48.960;9.108;2022-11-12T02:16:08;3.90;99.90
3086;DHT22;52812;48.960;9.108;2022-11-12T02:18:34;3.90;99.90
3086;DHT22;52812;48.960;9.108;2022-11-12T02:21:06;3.90;99.90
3086;DHT22;52812;48.960;9.108;2022-11-12T02:23:32;3.80;99.90
3086;DHT22;52812;48.960;9.108;2022-11-12T02:26:00;3.80;99.90
3086;DHT22;52812;48.960;9.108;2022-11-12T02:28:26;3.80;99.90
3086;DHT22;52812;48.960;9.108;2022-11-12T02:30:52;3.80;99.90
3086;DHT22;52812;48.960;9.108;2022-11-12T02:33:18;3.70;99.90
3086;DHT22;52812;48.960;9.108;2022-11-12T02:35:44;3.70;99.90
3086;DHT22;52812;48.960;9.108;2022-11-12T02:38:09;3.60;99.90
3086;DHT22;52812;48.960;9.108;2022-11-12T02:40:35;3.50;99.90
3086;DHT22;52812;48.960;9.108;2022-11-12T02:43:01;3.50;99.90
3086;DHT22;52812;48.960;9.108;2022-11-12T02:45:27;3.50;99.90
3086;DHT22;52812;48.960;9.108;2022-11-12T02:47:52;3.40;99.90
3086;DHT22;52812;48.960;9.108;2022-11-12T02:50:18;3.30;99.90
3086;DHT22;52812;48.960;9.108;2022-11-12T02:52:44;3.30;99.90
3086;DHT22;52812;48.960;9.108;2022-11-12T02:55:11;3.20;99.90
3086;DHT22;52812;48.960;9.108;2022-11-12T02:57:38;3.20;99.90
3086;DHT22;52812;48.960;9.108;2022-11-12T03:00:05;3.10;99.90
3086;DHT22;52812;48.960;9.108;2022-11-12T03:02:32;3.10;99.90
3086;DHT22;52812;48.960;9.108;2022-11-12T03:04:57;3.20;99.90
3086;DHT22;52812;48.960;9.108;2022-11-12T03:07:23;3.20;99.90
3086;DHT22;52812;48.960;9.108;2022-11-12T03:09:48;3.10;99.90
3086;DHT22;52812;48.960;9.108;2022-11-12T03:12:14;3.10;99.90
3086;DHT22;52812;48.960;9.108;2022-11-12T03:14:39;2.90;99.90
3086;DHT22;52812;48.960;9.108;2022-11-12T03:17:05;2.90;99.90
3086;DHT22;52812;48.960;9.108;2022-11-12T03:19:30;2.90;99.90
3086;DHT22;52812;48.960;9.108;2022-11-12T03:21:56;2.80;99.90
3086;DHT22;52812;48.960;9.108;2022-11-12T03:24:21;2.80;99.90
3086;DHT22;52812;48.960;9.108;2022-11-12T03:26:47;2.80;99.90
3086;DHT22;52812;48.960;9.108;2022-11-12T03:29:13;2.80;99.90
3086;DHT22;52812;48.960;9.108;2022-11-12T03:31:41;2.80;99.90
3086;DHT22;52812;48.960;9.108;2022-11-12T03:34:10;2.80;99.90
3086;DHT22;52812;48.960;9.108;2022-11-12T03:36:36;2.80;99.90
3086;DHT22;52812;48.960;9.108;2022-11-12T03:39:01;2.70;99.90
3086;DHT22;52812;48.960;9.108;2022-11-12T03:41:27;2.70;99.90
3086;DHT22;52812;48.960;9.108;2022-11-12T03:43:52;2.60;99.90
3086;DHT22;52812;48.960;9.108;2022-11-12T03:46:18;2.60;99.90
3086;DHT22;52812;48.960;9.108;2022-11-12T03:48:43;2.60;99.90
3086;DHT22;52812;48.960;9.108;2022-11-12T03:51:09;2.60;99.90
3086;DHT22;52812;48.960;9.108;2022-11-12T03:53:36;2.60;99.90
3086;DHT22;52812;48.960;9.108;2022-11-12T03:56:02;2.60;99.90
3086;DHT22;52812;48.960;9.108;2022-11-12T03:58:27;2.60;99.90
3086;DHT22;52812;48.960;9.108;2022-11-12T04:00:53;2.50;99.90
3086;DHT22;52812;48.960;9.108;2022-11-12T04:03:18;2.60;99.90
3086;DHT22;52812;48.960;9.108;2022-11-12T04:05:44;2.50;99.90
3086;DHT22;52812;48.960;9.108;2022-11-12T04:08:28;2.50;99.90
3086;DHT22;52812;48.960;9.108;2022-11-12T04:11:07;2.40;99.90
3086;DHT22;52812;48.960;9.108;2022-11-12T04:13:33;2.50;99.90
3086;DHT22;52812;48.960;9.108;2022-11-12T04:16:02;2.50;99.90
3086;DHT22;52812;48.960;9.108;2022-11-12T04:18:48;2.40;99.90
3086;DHT22;52812;48.960;9.108;2022-11-12T04:21:58;2.40;99.90
3086;DHT22;52812;48.960;9.108;2022-11-12T04:24:32;2.40;99.90
3086;DHT22;52812;48.960;9.108;2022-11-12T04:27:23;2.40;99.90
3086;DHT22;52812;48.960;9.108;2022-11-12T04:29:49;2.40;99.90
3086;DHT22;52812;48.960;9.108;2022-11-12T04:32:36;2.40;99.90
3086;DHT22;52812;48.960;9.108;2022-11-12T04:35:03;2.40;99.90
3086;DHT22;52812;48.960;9.108;2022-11-12T04:37:31;2.40;99.90
3086;DHT22;52812;48.960;9.108;2022-11-12T04:40:14;2.40;99.90
3086;DHT22;52812;48.960;9.108;2022-11-12T04:43:00;2.40;99.90
3086;DHT22;52812;48.960;9.108;2022-11-12T04:45:47;2.50;99.90
3086;DHT22;52812;48.960;9.108;2022-11-12T04:48:13;2.60;99.90
3086;DHT22;52812;48.960;9.108;2022-11-12T04:50:40;2.60;99.90
3086;DHT22;52812;48.960;9.108;2022-11-12T04:53:06;2.70;99.90
3086;DHT22;52812;48.960;9.108;2022-11-12T04:55:32;2.70;99.90
3086;DHT22;52812;48.960;9.108;2022-11-12T04:57:57;2.70;99.90
3086;DHT22;52812;48.960;9.108;2022-11-12T05:00:23;2.80;99.90
3086;DHT22;52812;48.960;9.108;2022-11-12T05:02:49;2.80;99.90
3086;DHT22;52812;48.960;9.108;2022-11-12T05:05:14;2.80;99.90
3086;DHT22;52812;48.960;9.108;2022-11-12T05:07:40;2.80;99.90
3086;DHT22;52812;48.960;9.108;2022-11-12T05:10:06;2.70;99.90
3086;DHT22;52812;48.960;9.108;2022-11-12T05:12:32;2.70;99.90
3086;DHT22;52812;48.960;9.108;2022-11-12T05:14:57;2.70;99.90
3086;DHT22;52812;48.960;9.108;2022-11-12T05:17:23;2.60;99.90
3086;DHT22;52812;48.960;9.108;2022-11-12T05:19:48;2.60;99.90
3086;DHT22;52812;48.960;9.108;2022-11-12T05:22:14;2.60;99.90
3086;DHT22;52812;48.960;9.108;2022-11-12T05:24:41;2.60;99.90
3086;DHT22;52812;48.960;9.108;2022-11-12T05:27:10;2.60;99.90
3086;DHT22;52812;48.960;9.108;2022-11-12T05:29:36;2.50;99.90
3086;DHT22;52812;48.960;9.108;2022-11-12T05:32:02;2.60;99.90
3086;DHT22;52812;48.960;9.108;2022-11-12T05:34:28;2.50;99.90
3086;DHT22;52812;48.960;9.108;2022-11-12T05:36:54;2.50;99.90
3086;DHT22;52812;48.960;9.108;2022-11-12T05:39:19;2.50;99.90
3086;DHT22;52812;48.960;9.108;2022-11-12T05:41:45;2.60;99.90
3086;DHT22;52812;48.960;9.108;2022-11-12T05:44:10;2.60;99.90
3086;DHT22;52812;48.960;9.108;2022-11-12T05:46:36;2.60;99.90
3086;DHT22;52812;48.960;9.108;2022-11-12T05:49:02;2.60;99.90
3086;DHT22;52812;48.960;9.108;2022-11-12T05:51:27;2.60;99.90
3086;DHT22;52812;48.960;9.108;2022-11-12T05:53:53;2.50;99.90
3086;DHT22;52812;48.960;9.108;2022-11-12T05:56:18;2.50;99.90
3086;DHT22;52812;48.960;9.108;2022-11-12T05:58:44;2.50;99.90
3086;DHT22;52812;48.960;9.108;2022-11-12T06:01:09;2.50;99.90
3086;DHT22;52812;48.960;9.108;2022-11-12T06:03:35;2.50;99.90
3086;DHT22;52812;48.960;9.108;2022-11-12T06:06:01;2.50;99.90
3086;DHT22;52812;48.960;9.108;2022-11-12T06:08:27;2.40;99.90
3086;DHT22;52812;48.960;9.108;2022-11-12T06:10:54;2.40;99.90
3086;DHT22;52812;48.960;9.108;2022-11-12T06:13:21;2.30;99.90
3086;DHT22;52812;48.960;9.108;2022-11-12T06:15:46;2.30;99.90
3086;DHT22;52812;48.960;9.108;2022-11-12T06:18:12;2.30;99.90
3086;DHT22;52812;48.960;9.108;2022-11-12T06:20:38;2.30;99.90
3086;DHT22;52812;48.960;9.108;2022-11-12T06:23:04;2.30;99.90
3086;DHT22;52812;48.960;9.108;2022-11-12T06:25:29;2.20;99.90
3086;DHT22;52812;48.960;9.108;2022-11-12T06:27:55;2.10;99.90
3086;DHT22;52812;48.960;9.108;2022-11-12T06:30:21;2.20;99.90
3086;DHT22;52812;48.960;9.108;2022-11-12T06:32:47;2.20;99.90
3086;DHT22;52812;48.960;9.108;2022-11-12T06:35:13;2.20;99.90
3086;DHT22;52812;48.960;9.108;2022-11-12T06:37:39;2.20;99.90
3086;DHT22;52812;48.960;9.108;2022-11-12T06:40:05;2.20;99.90
3086;DHT22;52812;48.960;9.108;2022-11-12T06:42:31;2.10;99.90
3086;DHT22;52812;48.960;9.108;2022-11-12T06:44:57;2.10;99.90
3086;DHT22;52812;48.960;9.108;2022-11-12T06:47:22;2.20;99.90
3086;DHT22;52812;48.960;9.108;2022-11-12T06:49:48;2.20;99.90
3086;DHT22;52812;48.960;9.108;2022-11-12T06:52:16;2.20;99.90
3086;DHT22;52812;48.960;9.108;2022-11-12T06:54:42;2.20;99.90
3086;DHT22;52812;48.960;9.108;2022-11-12T06:57:08;2.20;99.90
3086;DHT22;52812;48.960;9.108;2022-11-12T06:59:33;2.10;99.90
3086;DHT22;52812;48.960;9.108;2022-11-12T07:01:59;2.10;99.90
3086;DHT22;52812;48.960;9.108;2022-11-12T07:04:24;2.10;99.90
3086;DHT22;52812;48.960;9.108;2022-11-12T07:06:50;2.10;99.90
3086;DHT22;52812;48.960;9.108;2022-11-12T07:09:16;2.20;99.90
3086;DHT22;52812;48.960;9.108;2022-11-12T07:11:41;2.30;99.90
3086;DHT22;52812;48.960;9.108;2022-11-12T07:14:07;2.40;99.90
3086;DHT22;52812;48.960;9.108;2022-11-12T07:16:33;2.50;99.90
3086;DHT22;52812;48.960;9.108;2022-11-12T07:18:59;2.70;99.90
3086;DHT22;52812;48.960;9.108;2022-11-12T07:21:25;2.70;99.90
3086;DHT22;52812;48.960;9.108;2022-11-12T07:23:51;2.90;99.90
3086;DHT22;52812;48.960;9.108;2022-11-12T07:26:19;3.00;99.90
3086;DHT22;52812;48.960;9.108;2022-11-12T07:28:46;3.00;99.90
3086;DHT22;52812;48.960;9.108;2022-11-12T07:31:14;3.20;99.90
3086;DHT22;52812;48.960;9.108;2022-11-12T07:33:40;3.30;99.90
3086;DHT22;52812;48.960;9.108;2022-11-12T07:36:08;3.40;99.90
3086;DHT22;52812;48.960;9.108;2022-11-12T07:38:37;3.60;99.90
3086;DHT22;52812;48.960;9.108;2022-11-12T07:41:09;3.60;99.90
3086;DHT22;52812;48.960;9.108;2022-11-12T07:43:36;3.70;99.90
3086;DHT22;52812;48.960;9.108;2022-11-12T07:46:04;3.90;99.90
3086;DHT22;52812;48.960;9.108;2022-11-12T07:48:31;4.00;99.90
3086;DHT22;52812;48.960;9.108;2022-11-12T07:53:26;4.20;99.90
3086;DHT22;52812;48.960;9.108;2022-11-12T07:55:57;4.30;99.90
3086;DHT22;52812;48.960;9.108;2022-11-12T07:58:23;4.40;99.90
3086;DHT22;52812;48.960;9.108;2022-11-12T08:00:50;4.60;99.90
3086;DHT22;52812;48.960;9.108;2022-11-12T08:03:16;4.70;99.90
3086;DHT22;52812;48.960;9.108;2022-11-12T08:05:41;4.80;99.90
3086;DHT22;52812;48.960;9.108;2022-11-12T08:08:07;5.00;99.90
3086;DHT22;52812;48.960;9.108;2022-11-12T08:10:33;5.10;99.90
3086;DHT22;52812;48.960;9.108;2022-11-12T08:12:58;5.20;99.90
3086;DHT22;52812;48.960;9.108;2022-11-12T08:15:25;5.30;99.90
3086;DHT22;52812;48.960;9.108;2022-11-12T08:17:50;5.50;99.90
3086;DHT22;52812;48.960;9.108;2022-11-12T08:20:16;5.60;99.90
3086;DHT22;52812;48.960;9.108;2022-11-12T08:22:41;5.70;99.90
3086;DHT22;52812;48.960;9.108;2022-11-12T08:25:07;5.90;99.90
3086;DHT22;52812;48.960;9.108;2022-11-12T08:27:33;6.00;99.90
3086;DHT22;52812;48.960;9.108;2022-11-12T08:29:59;6.20;99.90
3086;DHT22;52812;48.960;9.108;2022-11-12T08:32:25;6.20;99.90
3086;DHT22;52812;48.960;9.108;2022-11-12T08:34:50;6.40;99.90
3086;DHT22;52812;48.960;9.108;2022-11-12T08:37:16;6.60;99.90
3086;DHT22;52812;48.960;9.108;2022-11-12T08:39:42;6.70;99.90
3086;DHT22;52812;48.960;9.108;2022-11-12T08:42:07;6.70;99.90
3086;DHT22;52812;48.960;9.108;2022-11-12T08:44:33;6.80;99.90
3086;DHT22;52812;48.960;9.108;2022-11-12T08:46:58;6.80;99.90
3086;DHT22;52812;48.960;9.108;2022-11-12T08:49:24;6.90;99.90
3086;DHT22;52812;48.960;9.108;2022-11-12T08:51:50;6.90;99.90
3086;DHT22;52812;48.960;9.108;2022-11-12T08:54:15;7.00;99.90
3086;DHT22;52812;48.960;9.108;2022-11-12T08:56:41;7.10;99.90
3086;DHT22;52812;48.960;9.108;2022-11-12T08:59:07;7.20;99.90
3086;DHT22;52812;48.960;9.108;2022-11-12T09:01:32;7.30;99.90
3086;DHT22;52812;48.960;9.108;2022-11-12T09:03:58;7.40;99.90
3086;DHT22;52812;48.960;9.108;2022-11-12T09:06:23;7.50;99.90
3086;DHT22;52812;48.960;9.108;2022-11-12T09:08:49;7.60;99.90
3086;DHT22;52812;48.960;9.108;2022-11-12T09:11:15;7.70;99.90
3086;DHT22;52812;48.960;9.108;2022-11-12T09:13:40;7.90;99.90
3086;DHT22;52812;48.960;9.108;2022-11-12T09:16:07;8.10;99.90
3086;DHT22;52812;48.960;9.108;2022-11-12T09:18:33;8.20;99.90
3086;DHT22;52812;48.960;9.108;2022-11-12T09:21:08;8.30;99.90
3086;DHT22;52812;48.960;9.108;2022-11-12T09:23:35;8.40;99.90
3086;DHT22;52812;48.960;9.108;2022-11-12T09:26:01;8.50;99.90
3086;DHT22;52812;48.960;9.108;2022-11-12T09:28:26;8.40;99.90
3086;DHT22;52812;48.960;9.108;2022-11-12T09:30:53;8.50;99.90
3086;DHT22;52812;48.960;9.108;2022-11-12T09:33:32;8.40;99.90
3086;DHT22;52812;48.960;9.108;2022-11-12T09:36:00;8.60;99.90
3086;DHT22;52812;48.960;9.108;2022-11-12T09:38:26;8.50;99.90
3086;DHT22;52812;48.960;9.108;2022-11-12T09:45:56;8.50;99.90
3086;DHT22;52812;48.960;9.108;2022-11-12T09:48:28;8.40;99.90
3086;DHT22;52812;48.960;9.108;2022-11-12T09:51:03;8.40;99.90
3086;DHT22;52812;48.960;9.108;2022-11-12T09:53:52;8.50;99.90
3086;DHT22;52812;48.960;9.108;2022-11-12T09:56:20;8.60;99.90
3086;DHT22;52812;48.960;9.108;2022-11-12T09:58:49;8.80;99.90
3086;DHT22;52812;48.960;9.108;2022-11-12T10:01:23;8.90;99.90
3086;DHT22;52812;48.960;9.108;2022-11-12T10:03:59;8.90;99.90
3086;DHT22;52812;48.960;9.108;2022-11-12T10:06:41;8.90;99.90
3086;DHT22;52812;48.960;9.108;2022-11-12T10:09:14;9.00;99.90
3086;DHT22;52812;48.960;9.108;2022-11-12T10:14:46;9.10;99.90
3086;DHT22;52812;48.960;9.108;2022-11-12T10:17:40;9.00;99.90
3086;DHT22;52812;48.960;9.108;2022-11-12T10:20:27;9.10;99.90
3086;DHT22;52812;48.960;9.108;2022-11-12T10:25:38;9.60;99.90
3086;DHT22;52812;48.960;9.108;2022-11-12T10:28:24;9.50;99.90
3086;DHT22;52812;48.960;9.108;2022-11-12T10:30:54;9.50;99.90
3086;DHT22;52812;48.960;9.108;2022-11-12T10:33:21;9.60;99.90
3086;DHT22;52812;48.960;9.108;2022-11-12T10:35:47;9.50;99.90
3086;DHT22;52812;48.960;9.108;2022-11-12T10:38:17;9.50;99.90
3086;DHT22;52812;48.960;9.108;2022-11-12T10:40:45;9.60;99.90
3086;DHT22;52812;48.960;9.108;2022-11-12T10:45:44;9.80;99.90
3086;DHT22;52812;48.960;9.108;2022-11-12T10:48:31;9.90;99.90
3086;DHT22;52812;48.960;9.108;2022-11-12T10:50:58;10.10;99.90
3086;DHT22;52812;48.960;9.108;2022-11-12T10:53:38;10.20;99.90
3086;DHT22;52812;48.960;9.108;2022-11-12T10:56:27;10.40;99.90
3086;DHT22;52812;48.960;9.108;2022-11-12T10:59:13;10.60;99.90
3086;DHT22;52812;48.960;9.108;2022-11-12T11:01:39;10.70;99.90
3086;DHT22;52812;48.960;9.108;2022-11-12T11:04:13;10.80;99.90
3086;DHT22;52812;48.960;9.108;2022-11-12T11:06:39;10.80;99.90
3086;DHT22;52812;48.960;9.108;2022-11-12T11:09:15;11.10;99.90
3086;DHT22;52812;48.960;9.108;2022-11-12T11:11:51;11.10;99.90
3086;DHT22;52812;48.960;9.108;2022-11-12T11:17:02;11.10;99.90
3086;DHT22;52812;48.960;9.108;2022-11-12T11:19:37;11.30;99.90
3086;DHT22;52812;48.960;9.108;2022-11-12T11:25:13;11.50;99.90
3086;DHT22;52812;48.960;9.108;2022-11-12T11:30:21;11.60;99.90
3086;DHT22;52812;48.960;9.108;2022-11-12T11:33:04;11.40;99.90
3086;DHT22;52812;48.960;9.108;2022-11-12T11:35:58;11.30;99.90
3086;DHT22;52812;48.960;9.108;2022-11-12T11:41:07;11.30;99.90
3086;DHT22;52812;48.960;9.108;2022-11-12T11:51:58;11.40;99.90
3086;DHT22;52812;48.960;9.108;2022-11-12T11:54:48;11.30;99.90
3086;DHT22;52812;48.960;9.108;2022-11-12T11:57:22;11.20;99.90
3086;DHT22;52812;48.960;9.108;2022-11-12T12:05:41;11.10;99.90
3086;DHT22;52812;48.960;9.108;2022-11-12T12:08:11;11.10;99.90
3086;DHT22;52812;48.960;9.108;2022-11-12T12:10:59;11.10;99.90
3086;DHT22;52812;48.960;9.108;2022-11-12T12:13:43;11.10;99.90
3086;DHT22;52812;48.960;9.108;2022-11-12T12:16:35;11.00;99.90
3086;DHT22;52812;48.960;9.108;2022-11-12T12:22:04;10.90;99.90
3086;DHT22;52812;48.960;9.108;2022-11-12T12:24:55;11.00;99.90
3086;DHT22;52812;48.960;9.108;2022-11-12T12:27:29;10.90;99.90
3086;DHT22;52812;48.960;9.108;2022-11-12T12:30:22;10.90;99.90
3086;DHT22;52812;48.960;9.108;2022-11-12T12:32:58;10.90;99.90
3086;DHT22;52812;48.960;9.108;2022-11-12T12:35:33;11.00;99.90
3086;DHT22;52812;48.960;9.108;2022-11-12T12:38:16;11.00;99.90
3086;DHT22;52812;48.960;9.108;2022-11-12T12:40:45;11.00;99.90
3086;DHT22;52812;48.960;9.108;2022-11-12T12:43:36;10.90;99.90
3086;DHT22;52812;48.960;9.108;2022-11-12T12:46:03;10.90;99.90
3086;DHT22;52812;48.960;9.108;2022-11-12T12:48:36;11.00;99.90
3086;DHT22;52812;48.960;9.108;2022-11-12T12:51:02;10.90;99.90
3086;DHT22;52812;48.960;9.108;2022-11-12T12:55:58;11.00;99.90
3086;DHT22;52812;48.960;9.108;2022-11-12T12:58:41;10.90;99.90
3086;DHT22;52812;48.960;9.108;2022-11-12T13:06:27;10.90;99.90
3086;DHT22;52812;48.960;9.108;2022-11-12T13:35:24;10.70;99.90
3086;DHT22;52812;48.960;9.108;2022-11-12T13:40:45;10.70;99.90
3086;DHT22;52812;48.960;9.108;2022-11-12T13:43:37;10.70;99.90
3086;DHT22;52812;48.960;9.108;2022-11-12T13:48:42;10.60;99.90
3086;DHT22;52812;48.960;9.108;2022-11-12T13:53:56;10.50;99.90
3086;DHT22;52812;48.960;9.108;2022-11-12T13:56:29;10.50;99.90
3086;DHT22;52812;48.960;9.108;2022-11-12T13:59:06;10.50;99.90
3086;DHT22;52812;48.960;9.108;2022-11-12T14:01:33;10.50;99.90
3086;DHT22;52812;48.960;9.108;2022-11-12T14:03:59;10.50;99.90
3086;DHT22;52812;48.960;9.108;2022-11-12T14:15:00;10.50;99.90
3086;DHT22;52812;48.960;9.108;2022-11-12T14:22:41;10.40;99.90
3086;DHT22;52812;48.960;9.108;2022-11-12T14:25:17;10.40;99.90
3086;DHT22;52812;48.960;9.108;2022-11-12T14:27:45;10.40;99.90
3086;DHT22;52812;48.960;9.108;2022-11-12T14:30:21;10.30;99.90
3086;DHT22;52812;48.960;9.108;2022-11-12T14:32:53;10.30;99.90
3086;DHT22;52812;48.960;9.108;2022-11-12T14:35:28;10.20;99.90
3086;DHT22;52812;48.960;9.108;2022-11-12T14:40:25;10.20;99.90
3086;DHT22;52812;48.960;9.108;2022-11-12T14:42:51;10.10;99.90
3086;DHT22;52812;48.960;9.108;2022-11-12T14:45:19;10.10;99.90
3086;DHT22;52812;48.960;9.108;2022-11-12T14:47:47;10.10;99.90
3086;DHT22;52812;48.960;9.108;2022-11-12T14:50:24;10.00;99.90
3086;DHT22;52812;48.960;9.108;2022-11-12T14:53:03;10.00;99.90
3086;DHT22;52812;48.960;9.108;2022-11-12T14:55:34;9.90;99.90
3086;DHT22;52812;48.960;9.108;2022-11-12T14:58:01;9.90;99.90
3086;DHT22;52812;48.960;9.108;2022-11-12T15:03:00;9.70;99.90
3086;DHT22;52812;48.960;9.108;2022-11-12T15:05:27;9.70;99.90
3086;DHT22;52812;48.960;9.108;2022-11-12T15:07:53;9.60;99.90
3086;DHT22;52812;48.960;9.108;2022-11-12T15:10:35;9.60;99.90
3086;DHT22;52812;48.960;9.108;2022-11-12T15:13:19;9.40;99.90
3086;DHT22;52812;48.960;9.108;2022-11-12T15:16:03;9.30;99.90
3086;DHT22;52812;48.960;9.108;2022-11-12T15:18:30;9.20;99.90
3086;DHT22;52812;48.960;9.108;2022-11-12T15:23:31;9.00;99.90
3086;DHT22;52812;48.960;9.108;2022-11-12T15:25:58;9.00;99.90
3086;DHT22;52812;48.960;9.108;2022-11-12T15:28:25;8.90;99.90
3086;DHT22;52812;48.960;9.108;2022-11-12T15:31:05;8.90;99.90
3086;DHT22;52812;48.960;9.108;2022-11-12T15:33:31;8.80;99.90
3086;DHT22;52812;48.960;9.108;2022-11-12T15:35:58;8.80;99.90
3086;DHT22;52812;48.960;9.108;2022-11-12T15:38:33;8.70;99.90
3086;DHT22;52812;48.960;9.108;2022-11-12T15:41:03;8.60;99.90
3086;DHT22;52812;48.960;9.108;2022-11-12T15:43:34;8.50;99.90
3086;DHT22;52812;48.960;9.108;2022-11-12T15:46:01;8.50;99.90
3086;DHT22;52812;48.960;9.108;2022-11-12T15:48:27;8.50;99.90
3086;DHT22;52812;48.960;9.108;2022-11-12T15:50:53;8.50;99.90
3086;DHT22;52812;48.960;9.108;2022-11-12T15:53:19;8.50;99.90
3086;DHT22;52812;48.960;9.108;2022-11-12T15:55:45;8.40;99.90
3086;DHT22;52812;48.960;9.108;2022-11-12T15:58:30;8.30;99.90
3086;DHT22;52812;48.960;9.108;2022-11-12T16:00:57;8.20;99.90
3086;DHT22;52812;48.960;9.108;2022-11-12T16:03:22;8.10;99.90
3086;DHT22;52812;48.960;9.108;2022-11-12T16:05:48;8.20;99.90
3086;DHT22;52812;48.960;9.108;2022-11-12T16:08:14;8.20;99.90
3086;DHT22;52812;48.960;9.108;2022-11-12T16:10:41;8.20;99.90
3086;DHT22;52812;48.960;9.108;2022-11-12T16:13:21;8.10;99.90
3086;DHT22;52812;48.960;9.108;2022-11-12T16:15:51;8.00;99.90
3086;DHT22;52812;48.960;9.108;2022-11-12T16:18:16;8.00;99.90
3086;DHT22;52812;48.960;9.108;2022-11-12T16:20:42;7.90;99.90
3086;DHT22;52812;48.960;9.108;2022-11-12T16:23:08;7.80;99.90
3086;DHT22;52812;48.960;9.108;2022-11-12T16:25:35;7.80;99.90
3086;DHT22;52812;48.960;9.108;2022-11-12T16:28:01;7.70;99.90
3086;DHT22;52812;48.960;9.108;2022-11-12T16:30:29;7.60;99.90
3086;DHT22;52812;48.960;9.108;2022-11-12T16:32:56;7.60;99.90
3086;DHT22;52812;48.960;9.108;2022-11-12T16:35:22;7.50;99.90
3086;DHT22;52812;48.960;9.108;2022-11-12T16:37:49;7.50;99.90
3086;DHT22;52812;48.960;9.108;2022-11-12T16:40:25;7.40;99.90
3086;DHT22;52812;48.960;9.108;2022-11-12T16:42:51;7.20;99.90
3086;DHT22;52812;48.960;9.108;2022-11-12T16:45:19;7.10;99.90
3086;DHT22;52812;48.960;9.108;2022-11-12T16:47:47;7.10;99.90
3086;DHT22;52812;48.960;9.108;2022-11-12T16:50:18;7.00;99.90
3086;DHT22;52812;48.960;9.108;2022-11-12T16:52:46;6.90;99.90
3086;DHT22;52812;48.960;9.108;2022-11-12T16:55:11;6.80;99.90
3086;DHT22;52812;48.960;9.108;2022-11-12T16:57:37;6.70;99.90
3086;DHT22;52812;48.960;9.108;2022-11-12T17:00:04;6.70;99.90
3086;DHT22;52812;48.960;9.108;2022-11-12T17:02:30;6.60;99.90
3086;DHT22;52812;48.960;9.108;2022-11-12T17:04:56;6.50;99.90
3086;DHT22;52812;48.960;9.108;2022-11-12T17:07:21;6.40;99.90
3086;DHT22;52812;48.960;9.108;2022-11-12T17:09:47;6.30;99.90
3086;DHT22;52812;48.960;9.108;2022-11-12T17:12:12;6.20;99.90
3086;DHT22;52812;48.960;9.108;2022-11-12T17:14:38;6.10;99.90
3086;DHT22;52812;48.960;9.108;2022-11-12T17:17:03;6.10;99.90
3086;DHT22;52812;48.960;9.108;2022-11-12T17:19:29;6.00;99.90
3086;DHT22;52812;48.960;9.108;2022-11-12T17:21:55;6.00;99.90
3086;DHT22;52812;48.960;9.108;2022-11-12T17:24:20;5.90;99.90
3086;DHT22;52812;48.960;9.108;2022-11-12T17:26:46;5.80;99.90
3086;DHT22;52812;48.960;9.108;2022-11-12T17:29:11;5.70;99.90
3086;DHT22;52812;48.960;9.108;2022-11-12T17:31:37;5.70;99.90
3086;DHT22;52812;48.960;9.108;2022-11-12T17:34:04;5.60;99.90
3086;DHT22;52812;48.960;9.108;2022-11-12T17:36:30;5.60;99.90
3086;DHT22;52812;48.960;9.108;2022-11-12T17:38:58;5.60;99.90
3086;DHT22;52812;48.960;9.108;2022-11-12T17:41:26;5.50;99.90
3086;DHT22;52812;48.960;9.108;2022-11-12T17:43:58;5.50;99.90
3086;DHT22;52812;48.960;9.108;2022-11-12T17:46:24;5.40;99.90
3086;DHT22;52812;48.960;9.108;2022-11-12T17:48:50;5.30;99.90
3086;DHT22;52812;48.960;9.108;2022-11-12T17:51:18;5.20;99.90
3086;DHT22;52812;48.960;9.108;2022-11-12T17:53:45;5.10;99.90
3086;DHT22;52812;48.960;9.108;2022-11-12T17:56:12;5.10;99.90
3086;DHT22;52812;48.960;9.108;2022-11-12T17:58:39;5.10;99.90